Time;durP1;ratioP1;P1;durP2;ratioP2;P2;SDS_P1;SDS_P2;PMS_P1;PMS_P2;Temp;Humidity;BMP_temperature;BMP_pressure;BME280_temperature;BME280_humidity;BME280_pressure;Samples;Min_cycle;Max_cycle;Signal;HPM_P1;HPM_P2
2022/09/29 00:00:18;;;;;;;6.17;3.50;;;7.00;99.90;;;;;;4208424;28;20476;-77
2022/09/29 00:02:20;;;;;;;6.60;3.53;;;7.00;99.90;;;;;;4223906;28;20755;-76
2022/09/29 00:04:22;;;;;;;8.43;3.93;;;7.00;99.90;;;;;;4226448;28;20457;-75
2022/09/29 00:06:23;;;;;;;6.87;3.50;;;7.10;99.90;;;;;;4200956;28;20562;-73
2022/09/29 00:08:28;;;;;;;5.67;3.23;;;7.00;99.90;;;;;;4221642;28;20474;-74
2022/09/29 00:10:30;;;;;;;6.20;3.50;;;7.00;99.90;;;;;;4220345;28;20515;-76
2022/09/29 00:12:32;;;;;;;6.30;3.50;;;7.00;99.90;;;;;;4204033;28;20451;-75
2022/09/29 00:14:34;;;;;;;6.73;3.10;;;7.00;99.90;;;;;;4201169;28;21211;-74
2022/09/29 00:16:38;;;;;;;7.47;4.03;;;7.00;99.90;;;;;;4224083;28;20457;-75
2022/09/29 00:18:40;;;;;;;7.80;3.87;;;7.00;99.90;;;;;;4203872;28;20458;-75
2022/09/29 00:20:42;;;;;;;5.67;3.00;;;6.90;99.90;;;;;;4222614;28;20548;-75
2022/09/29 00:22:44;;;;;;;6.13;3.20;;;6.90;99.90;;;;;;4204695;28;21006;-75
2022/09/29 00:24:47;;;;;;;5.57;2.60;;;6.90;99.90;;;;;;4223593;28;20492;-75
2022/09/29 00:26:49;;;;;;;6.47;3.60;;;6.90;99.90;;;;;;4218649;28;20541;-75
2022/09/29 00:28:55;;;;;;;5.70;3.27;;;6.90;99.90;;;;;;4202928;28;20472;-75
2022/09/29 00:30:59;;;;;;;7.80;3.93;;;6.90;99.90;;;;;;4204991;28;20497;-74
2022/09/29 00:33:02;;;;;;;7.00;3.53;;;6.80;99.90;;;;;;4225753;28;20550;-73
2022/09/29 00:35:07;;;;;;;6.43;3.50;;;6.80;99.90;;;;;;4223483;28;20460;-74
2022/09/29 00:37:09;;;;;;;4.90;2.77;;;6.80;99.90;;;;;;4222826;28;21039;-74
2022/09/29 00:39:11;;;;;;;6.33;3.33;;;6.80;99.90;;;;;;4221460;28;20488;-73
2022/09/29 00:41:16;;;;;;;6.90;3.90;;;6.80;99.90;;;;;;4218590;28;20472;-73
2022/09/29 00:43:22;;;;;;;7.17;3.90;;;6.80;99.90;;;;;;4222183;28;20572;-74
2022/09/29 00:45:24;;;;;;;8.43;4.47;;;6.70;99.90;;;;;;4224174;28;20453;-75
2022/09/29 00:47:28;;;;;;;8.10;4.10;;;6.70;99.90;;;;;;4220359;28;20489;-75
2022/09/29 00:49:38;;;;;;;8.17;4.10;;;6.70;99.90;;;;;;4222837;28;20464;-74
2022/09/29 00:51:44;;;;;;;7.13;3.70;;;6.70;99.90;;;;;;4219109;28;20694;-74
2022/09/29 00:53:47;;;;;;;7.77;3.80;;;6.70;99.90;;;;;;4201333;28;20536;-74
2022/09/29 00:55:53;;;;;;;7.43;3.63;;;6.70;99.90;;;;;;4201463;28;20464;-74
2022/09/29 00:57:58;;;;;;;6.23;3.50;;;6.70;99.90;;;;;;4218651;28;20472;-75
2022/09/29 01:00:06;;;;;;;7.70;3.60;;;6.70;99.90;;;;;;4223499;28;20481;-74
2022/09/29 01:02:08;;;;;;;8.73;4.00;;;6.60;99.90;;;;;;4222790;28;20992;-74
2022/09/29 01:04:14;;;;;;;7.60;3.80;;;6.60;99.90;;;;;;4223525;28;20969;-74
2022/09/29 01:06:21;;;;;;;8.13;3.97;;;6.60;99.90;;;;;;4218924;28;20451;-74
2022/09/29 01:08:30;;;;;;;8.00;3.77;;;6.50;99.90;;;;;;4223088;28;20496;-74
2022/09/29 01:10:34;;;;;;;6.33;3.60;;;6.60;99.90;;;;;;4222534;28;20498;-74
2022/09/29 01:12:36;;;;;;;8.90;4.57;;;6.60;99.90;;;;;;4218372;28;20442;-75
2022/09/29 01:14:38;;;;;;;9.07;4.40;;;6.50;99.90;;;;;;4217341;28;20480;-74
2022/09/29 01:16:40;;;;;;;8.10;4.03;;;6.50;99.90;;;;;;4218858;28;20540;-74
2022/09/29 01:18:44;;;;;;;9.07;4.63;;;6.50;99.90;;;;;;4222168;28;20942;-74
2022/09/29 01:21:02;;;;;;;7.87;4.43;;;6.50;99.90;;;;;;4203108;28;20457;-74
2022/09/29 01:23:37;;;;;;;9.47;4.63;;;6.50;99.90;;;;;;4222600;28;20484;-74
2022/09/29 01:26:23;;;;;;;7.53;4.33;;;6.50;99.90;;;;;;4196405;28;20808;-74
2022/09/29 01:28:51;;;;;;;8.90;4.23;;;6.60;99.90;;;;;;4210078;28;20863;-74
2022/09/29 01:31:10;;;;;;;6.60;3.80;;;6.60;99.90;;;;;;4211288;28;20837;-74
2022/09/29 01:33:29;;;;;;;9.60;5.23;;;6.60;99.90;;;;;;4232362;28;20456;-75
2022/09/29 01:35:40;;;;;;;8.30;4.30;;;6.50;99.90;;;;;;4214926;28;20456;-75
2022/09/29 01:37:54;;;;;;;10.37;5.03;;;6.60;99.90;;;;;;4222648;28;20560;-74
2022/09/29 01:40:06;;;;;;;7.73;4.23;;;6.60;99.90;;;;;;4209412;28;20553;-74
2022/09/29 01:42:12;;;;;;;8.80;4.10;;;6.50;99.90;;;;;;4225738;28;20443;-75
2022/09/29 01:44:22;;;;;;;7.83;4.17;;;6.60;99.90;;;;;;4219043;28;20488;-74
2022/09/29 01:46:30;;;;;;;8.57;4.20;;;6.60;99.90;;;;;;4202707;28;20484;-75
2022/09/29 01:48:36;;;;;;;6.87;3.53;;;6.60;99.90;;;;;;4219415;28;20575;-74
2022/09/29 01:50:42;;;;;;;7.73;3.30;;;6.50;99.90;;;;;;4209382;28;20464;-74
2022/09/29 01:52:49;;;;;;;6.63;3.60;;;6.50;99.90;;;;;;4215973;28;20511;-75
2022/09/29 01:54:55;;;;;;;9.13;3.77;;;6.50;99.90;;;;;;4206228;28;20481;-74
2022/09/29 01:57:02;;;;;;;7.97;3.90;;;6.50;99.90;;;;;;4210577;28;20477;-75
2022/09/29 01:59:10;;;;;;;8.30;4.27;;;6.50;99.90;;;;;;4203361;28;20505;-76
2022/09/29 02:01:17;;;;;;;8.67;3.73;;;6.50;99.90;;;;;;4221605;28;20478;-76
2022/09/29 02:03:26;;;;;;;6.70;3.47;;;6.50;99.90;;;;;;4206159;28;20485;-75
2022/09/29 02:05:33;;;;;;;5.57;3.43;;;6.50;99.90;;;;;;4216471;28;20515;-76
2022/09/29 02:07:38;;;;;;;7.73;3.97;;;7.00;99.90;;;;;;4210558;28;20571;-75
2022/09/29 02:09:43;;;;;;;6.17;3.30;;;6.50;99.90;;;;;;4219593;28;21310;-76
2022/09/29 02:11:47;;;;;;;7.07;3.80;;;6.50;99.90;;;;;;4216496;28;20496;-76
2022/09/29 02:13:52;;;;;;;7.67;3.93;;;6.50;99.90;;;;;;4220087;28;21049;-76
2022/09/29 02:15:57;;;;;;;6.23;3.30;;;6.40;99.90;;;;;;4204651;28;20548;-74
2022/09/29 02:18:03;;;;;;;8.00;4.20;;;6.40;99.90;;;;;;4226192;28;20469;-74
2022/09/29 02:20:10;;;;;;;7.23;3.83;;;6.40;99.90;;;;;;4219158;28;20479;-74
2022/09/29 02:22:13;;;;;;;7.47;3.67;;;6.40;99.90;;;;;;4221894;28;20470;-74
2022/09/29 02:24:15;;;;;;;8.07;3.97;;;6.40;99.90;;;;;;4203030;28;20481;-74
2022/09/29 02:26:19;;;;;;;7.77;3.97;;;6.40;99.90;;;;;;4201116;28;20474;-74
2022/09/29 02:28:21;;;;;;;7.93;4.13;;;6.40;99.90;;;;;;4219390;28;20467;-74
2022/09/29 02:30:23;;;;;;;7.33;4.20;;;6.30;99.90;;;;;;4222648;28;20447;-74
2022/09/29 02:32:29;;;;;;;9.37;5.27;;;6.30;99.90;;;;;;4213341;28;20455;-74
2022/09/29 02:34:33;;;;;;;10.53;5.03;;;6.30;99.90;;;;;;4204762;28;21191;-74
2022/09/29 02:36:45;;;;;;;10.53;5.13;;;6.30;99.90;;;;;;4206667;28;20827;-74
2022/09/29 02:38:54;;;;;;;11.30;5.13;;;6.30;99.90;;;;;;4222014;28;20441;-74
2022/09/29 02:41:06;;;;;;;10.37;5.10;;;6.30;99.90;;;;;;4218512;28;20442;-73
2022/09/29 02:43:20;;;;;;;9.20;4.53;;;6.30;99.90;;;;;;4206199;28;20468;-74
2022/09/29 02:45:33;;;;;;;9.77;4.97;;;6.30;99.90;;;;;;4217775;28;20447;-73
2022/09/29 02:47:51;;;;;;;9.07;4.50;;;6.20;99.90;;;;;;4224823;28;20471;-74
2022/09/29 02:50:12;;;;;;;10.93;4.93;;;6.20;99.90;;;;;;4222330;28;20556;-74
2022/09/29 02:52:22;;;;;;;10.23;4.93;;;6.20;99.90;;;;;;4216924;28;20500;-73
2022/09/29 02:54:49;;;;;;;8.23;4.37;;;6.20;99.90;;;;;;4204155;28;20558;-74
2022/09/29 02:57:02;;;;;;;13.83;5.13;;;6.20;99.90;;;;;;4222589;28;20479;-75
2022/09/29 02:59:07;;;;;;;9.63;4.83;;;6.20;99.90;;;;;;4218185;28;20876;-75
2022/09/29 03:01:09;;;;;;;10.47;5.50;;;6.20;99.90;;;;;;4216850;28;20537;-73
2022/09/29 03:03:11;;;;;;;9.37;4.97;;;6.20;99.90;;;;;;4199161;28;20743;-74
2022/09/29 03:05:16;;;;;;;11.20;5.30;;;6.30;99.90;;;;;;4202800;28;20523;-74
2022/09/29 03:07:19;;;;;;;10.20;5.03;;;6.10;99.90;;;;;;4220499;28;20892;-74
2022/09/29 03:09:21;;;;;;;9.93;4.50;;;6.10;99.90;;;;;;4222487;28;20453;-74
2022/09/29 03:11:23;;;;;;;8.73;4.50;;;6.10;99.90;;;;;;4202134;28;20526;-75
2022/09/29 03:13:25;;;;;;;9.83;4.43;;;6.10;99.90;;;;;;4211351;28;20545;-75
2022/09/29 03:15:27;;;;;;;9.17;4.83;;;6.10;99.90;;;;;;4220341;28;20495;-75
2022/09/29 03:17:30;;;;;;;10.47;5.07;;;6.00;99.90;;;;;;4219779;28;20509;-74
2022/09/29 03:19:32;;;;;;;10.23;4.90;;;6.00;99.90;;;;;;4223135;28;21050;-75
2022/09/29 03:21:34;;;;;;;8.73;4.43;;;6.10;99.90;;;;;;4225964;28;21041;-75
2022/09/29 03:23:37;;;;;;;9.67;4.27;;;6.00;99.90;;;;;;4222577;28;20581;-75
2022/09/29 03:25:39;;;;;;;11.10;5.07;;;6.00;99.90;;;;;;4215181;28;20826;-75
2022/09/29 03:27:42;;;;;;;10.23;4.60;;;6.00;99.90;;;;;;4221674;28;20455;-75
2022/09/29 03:29:43;;;;;;;11.60;5.60;;;6.00;99.90;;;;;;4220346;28;21040;-75
2022/09/29 03:31:45;;;;;;;13.90;5.90;;;6.00;99.90;;;;;;4222625;28;20461;-74
2022/09/29 03:33:47;;;;;;;11.80;5.10;;;6.00;99.90;;;;;;4203097;28;20480;-75
2022/09/29 03:35:49;;;;;;;12.83;5.60;;;6.00;99.90;;;;;;4201687;28;20494;-75
2022/09/29 03:37:52;;;;;;;11.67;5.70;;;6.00;99.90;;;;;;4224756;28;20996;-74
2022/09/29 03:39:55;;;;;;;12.37;5.77;;;6.00;99.90;;;;;;4221576;28;20455;-74
2022/09/29 03:41:57;;;;;;;11.50;5.73;;;6.00;99.90;;;;;;4222943;28;20444;-76
2022/09/29 03:43:59;;;;;;;11.43;5.23;;;6.00;99.90;;;;;;4222535;28;21291;-75
2022/09/29 03:46:01;;;;;;;12.80;5.30;;;6.00;99.90;;;;;;4217290;28;20487;-73
2022/09/29 03:48:03;;;;;;;10.43;5.27;;;6.00;99.90;;;;;;4220714;28;20462;-75
2022/09/29 03:50:05;;;;;;;9.57;4.80;;;6.00;99.90;;;;;;4214829;28;20822;-74
2022/09/29 03:52:07;;;;;;;8.47;4.57;;;6.00;99.90;;;;;;4206585;28;20823;-75
2022/09/29 03:54:09;;;;;;;9.40;4.60;;;6.00;99.90;;;;;;4217430;28;20447;-76
2022/09/29 03:56:13;;;;;;;13.33;5.10;;;6.00;99.90;;;;;;4203069;28;20481;-75
2022/09/29 03:58:15;;;;;;;13.57;6.27;;;5.90;99.90;;;;;;4219163;28;20846;-74
2022/09/29 04:00:17;;;;;;;11.73;5.77;;;5.90;99.90;;;;;;4206876;28;20485;-75
2022/09/29 04:02:19;;;;;;;10.20;5.77;;;5.90;99.90;;;;;;4220069;28;20462;-75
2022/09/29 04:04:21;;;;;;;8.80;4.97;;;5.90;99.90;;;;;;4201762;28;20542;-75
2022/09/29 04:06:23;;;;;;;10.13;5.13;;;5.90;99.90;;;;;;4221046;28;20490;-74
2022/09/29 04:08:25;;;;;;;10.73;5.27;;;5.90;99.90;;;;;;4217204;28;20479;-75
2022/09/29 04:10:27;;;;;;;10.73;5.50;;;5.90;99.90;;;;;;4221892;28;20839;-75
2022/09/29 04:12:30;;;;;;;8.93;4.30;;;5.90;99.90;;;;;;4220546;28;21332;-75
2022/09/29 04:14:32;;;;;;;9.23;4.27;;;5.90;99.90;;;;;;4212404;28;20450;-74
2022/09/29 04:16:34;;;;;;;8.40;4.73;;;5.90;99.90;;;;;;4217060;28;20478;-74
2022/09/29 04:18:36;;;;;;;8.60;4.80;;;5.90;99.90;;;;;;4218984;28;20472;-73
2022/09/29 04:20:39;;;;;;;8.20;4.53;;;5.80;99.90;;;;;;4213878;28;20451;-74
2022/09/29 04:22:40;;;;;;;8.63;4.40;;;5.80;99.90;;;;;;4217290;28;20503;-75
2022/09/29 04:24:42;;;;;;;7.83;4.10;;;5.80;99.90;;;;;;4220038;28;20475;-74
2022/09/29 04:26:44;;;;;;;8.80;4.70;;;5.80;99.90;;;;;;4219252;28;20458;-74
2022/09/29 04:28:48;;;;;;;8.20;4.17;;;5.80;99.90;;;;;;4213946;28;20459;-74
2022/09/29 04:30:49;;;;;;;9.53;5.07;;;5.80;99.90;;;;;;4217871;28;20948;-74
2022/09/29 04:32:51;;;;;;;11.53;5.80;;;5.80;99.90;;;;;;4220368;28;20460;-74
2022/09/29 04:34:53;;;;;;;10.00;4.77;;;5.80;99.90;;;;;;4214409;28;20935;-74
2022/09/29 04:36:55;;;;;;;12.63;5.83;;;5.80;99.90;;;;;;4205464;28;20500;-74
2022/09/29 04:38:57;;;;;;;9.00;4.93;;;5.70;99.90;;;;;;4221420;28;20529;-75
2022/09/29 04:40:59;;;;;;;10.27;4.47;;;5.70;99.90;;;;;;4220388;28;20451;-74
2022/09/29 04:43:01;;;;;;;12.83;5.23;;;5.70;99.90;;;;;;4220094;28;20962;-74
2022/09/29 04:45:06;;;;;;;11.50;5.50;;;5.70;99.90;;;;;;4225402;28;20509;-74
2022/09/29 04:47:07;;;;;;;14.30;6.50;;;5.70;99.90;;;;;;4221480;28;20474;-73
2022/09/29 04:49:11;;;;;;;12.57;5.10;;;5.70;99.90;;;;;;4206698;28;20558;-74
2022/09/29 04:51:15;;;;;;;10.17;4.60;;;5.70;99.90;;;;;;4220326;28;21036;-74
2022/09/29 04:53:17;;;;;;;9.70;4.67;;;5.70;99.90;;;;;;4222354;28;21272;-75
2022/09/29 04:55:19;;;;;;;10.97;5.30;;;5.70;99.90;;;;;;4222305;28;20974;-74
2022/09/29 04:57:21;;;;;;;12.33;5.07;;;5.70;99.90;;;;;;4203611;28;20473;-74
2022/09/29 04:59:23;;;;;;;11.80;5.30;;;5.70;99.90;;;;;;4225588;28;20478;-74
2022/09/29 05:01:27;;;;;;;10.60;4.90;;;5.60;99.90;;;;;;4222230;28;20533;-73
2022/09/29 05:03:28;;;;;;;12.40;5.80;;;5.60;99.90;;;;;;4204507;28;20467;-73
2022/09/29 05:05:30;;;;;;;10.37;5.07;;;5.60;99.90;;;;;;4215269;28;20544;-74
2022/09/29 05:07:34;;;;;;;10.30;5.43;;;5.60;99.90;;;;;;4203176;28;20472;-74
2022/09/29 05:09:36;;;;;;;9.93;4.63;;;5.60;99.90;;;;;;4225222;28;20449;-76
2022/09/29 05:11:38;;;;;;;9.27;4.70;;;5.60;99.90;;;;;;4204138;28;20450;-76
2022/09/29 05:13:40;;;;;;;10.00;4.90;;;5.50;99.90;;;;;;4220057;28;20446;-76
2022/09/29 05:15:42;;;;;;;10.93;4.83;;;5.50;99.90;;;;;;4201970;28;20851;-76
2022/09/29 05:17:46;;;;;;;10.97;5.00;;;5.50;99.90;;;;;;4225758;28;20832;-75
2022/09/29 05:19:47;;;;;;;9.80;5.40;;;5.50;99.90;;;;;;4216066;28;20448;-75
2022/09/29 05:21:50;;;;;;;10.33;5.30;;;5.50;99.90;;;;;;4218383;28;20508;-76
2022/09/29 05:23:52;;;;;;;10.13;4.90;;;5.40;99.90;;;;;;4217639;28;20484;-76
2022/09/29 05:25:54;;;;;;;11.27;5.10;;;5.40;99.90;;;;;;4202389;28;20454;-76
2022/09/29 05:27:57;;;;;;;14.10;5.80;;;5.40;99.90;;;;;;4209958;28;20561;-75
2022/09/29 05:29:58;;;;;;;11.43;5.50;;;5.40;99.90;;;;;;4219601;28;20462;-76
2022/09/29 05:32:01;;;;;;;10.27;4.67;;;5.50;99.90;;;;;;4219598;28;20453;-75
2022/09/29 05:34:04;;;;;;;10.67;5.60;;;5.50;99.90;;;;;;4218009;28;20924;-75
2022/09/29 05:36:07;;;;;;;9.47;5.17;;;5.50;99.90;;;;;;4202090;28;20464;-75
2022/09/29 05:38:09;;;;;;;9.20;4.80;;;5.40;99.90;;;;;;4222314;28;21106;-75
2022/09/29 05:40:11;;;;;;;10.27;4.77;;;5.50;99.90;;;;;;4204999;28;20451;-75
2022/09/29 05:42:13;;;;;;;11.53;5.23;;;5.40;99.90;;;;;;4201466;28;20540;-74
2022/09/29 05:44:15;;;;;;;9.40;4.93;;;5.40;99.90;;;;;;4216694;28;20479;-75
2022/09/29 05:46:18;;;;;;;11.00;5.50;;;5.40;99.90;;;;;;4202460;28;20449;-74
2022/09/29 05:48:20;;;;;;;13.53;5.77;;;5.40;99.90;;;;;;4205547;28;20475;-74
2022/09/29 05:50:23;;;;;;;12.20;5.57;;;5.40;99.90;;;;;;4217985;28;20963;-73
2022/09/29 05:52:25;;;;;;;10.40;5.40;;;5.50;99.90;;;;;;4220672;28;20478;-74
2022/09/29 05:54:27;;;;;;;10.07;4.93;;;5.50;99.90;;;;;;4220898;28;20853;-74
2022/09/29 05:56:29;;;;;;;9.30;5.20;;;5.50;99.90;;;;;;4218571;28;20935;-74
2022/09/29 05:58:31;;;;;;;9.97;5.03;;;5.50;99.90;;;;;;4205957;28;20483;-75
2022/09/29 06:00:33;;;;;;;10.93;5.27;;;5.50;99.90;;;;;;4219985;28;21144;-74
2022/09/29 06:02:35;;;;;;;9.23;4.87;;;5.50;99.90;;;;;;4218378;28;20804;-74
2022/09/29 06:04:37;;;;;;;11.90;5.70;;;5.40;99.90;;;;;;4218025;28;20594;-75
2022/09/29 06:06:40;;;;;;;9.53;5.27;;;5.40;99.90;;;;;;4220289;28;20547;-74
2022/09/29 06:08:43;;;;;;;11.13;5.33;;;5.50;99.90;;;;;;4200387;28;21053;-74
2022/09/29 06:10:45;;;;;;;12.13;6.20;;;5.40;99.90;;;;;;4218306;28;20490;-74
2022/09/29 06:12:47;;;;;;;11.37;5.43;;;5.40;99.90;;;;;;4218552;28;20483;-74
2022/09/29 06:14:49;;;;;;;10.57;5.37;;;5.40;99.90;;;;;;4218273;28;20494;-75
2022/09/29 06:16:52;;;;;;;14.73;6.83;;;5.40;99.90;;;;;;4218985;28;20455;-74
2022/09/29 06:18:54;;;;;;;11.53;5.30;;;5.50;99.90;;;;;;4201445;28;21054;-75
2022/09/29 06:21:01;;;;;;;10.37;5.60;;;5.40;99.90;;;;;;4204745;28;20471;-75
2022/09/29 06:23:04;;;;;;;11.63;5.77;;;5.50;99.90;;;;;;4218209;28;20469;-76
2022/09/29 06:25:08;;;;;;;10.50;5.03;;;5.50;99.90;;;;;;4198005;28;20688;-74
2022/09/29 06:27:10;;;;;;;10.00;4.90;;;5.50;99.90;;;;;;4217787;28;20467;-75
2022/09/29 06:29:12;;;;;;;11.47;5.50;;;5.50;99.90;;;;;;4202785;28;20454;-74
2022/09/29 06:31:16;;;;;;;7.70;4.60;;;5.50;99.90;;;;;;4218931;28;20996;-74
2022/09/29 06:33:19;;;;;;;12.20;5.70;;;5.60;99.90;;;;;;4201177;28;20513;-73
2022/09/29 06:37:45;;;;;;;9.60;5.07;;;5.60;99.90;;;;;;4221256;28;20550;-73
2022/09/29 06:39:48;;;;;;;11.60;5.07;;;5.60;99.90;;;;;;4223359;28;20551;-74
2022/09/29 06:41:53;;;;;;;10.30;4.90;;;5.60;99.90;;;;;;4218680;28;20454;-73
2022/09/29 06:43:56;;;;;;;8.60;4.63;;;5.70;99.90;;;;;;4200833;28;20452;-75
2022/09/29 06:45:58;;;;;;;9.63;5.00;;;5.70;99.90;;;;;;4203202;28;20534;-74
2022/09/29 06:48:02;;;;;;;9.67;5.03;;;5.70;99.90;;;;;;4203946;28;20515;-75
2022/09/29 06:50:05;;;;;;;9.70;4.57;;;5.70;99.90;;;;;;4215906;28;20443;-75
2022/09/29 06:52:07;;;;;;;10.30;5.07;;;5.70;99.90;;;;;;4218548;28;20502;-74
2022/09/29 06:54:10;;;;;;;13.07;5.93;;;5.80;99.90;;;;;;4217323;28;20500;-74
2022/09/29 06:56:13;;;;;;;18.73;7.43;;;5.80;99.90;;;;;;4220698;28;20438;-74
2022/09/29 06:58:15;;;;;;;17.50;7.33;;;5.80;99.90;;;;;;4221050;28;20493;-74
2022/09/29 07:00:17;;;;;;;15.47;7.60;;;5.80;99.90;;;;;;4203574;28;21004;-73
2022/09/29 07:02:20;;;;;;;15.60;7.07;;;5.90;99.90;;;;;;4225228;28;20435;-72
2022/09/29 07:04:22;;;;;;;19.47;8.00;;;5.90;99.90;;;;;;4220015;28;20480;-73
2022/09/29 07:06:24;;;;;;;18.83;8.00;;;5.90;99.90;;;;;;4202270;28;20464;-73
2022/09/29 07:08:27;;;;;;;16.33;7.47;;;6.00;99.90;;;;;;4201691;28;20488;-73
2022/09/29 07:10:29;;;;;;;15.93;7.73;;;6.00;99.90;;;;;;4229582;28;20486;-74
2022/09/29 07:12:33;;;;;;;15.13;7.60;;;6.00;99.90;;;;;;4225917;28;20742;-72
2022/09/29 07:14:35;;;;;;;17.30;8.20;;;6.10;99.90;;;;;;4230435;28;20451;-72
2022/09/29 07:16:40;;;;;;;16.87;8.93;;;6.10;99.90;;;;;;4227064;28;20447;-75
2022/09/29 07:18:43;;;;;;;16.33;8.30;;;6.10;99.90;;;;;;4215357;28;20451;-73
2022/09/29 07:20:45;;;;;;;17.10;7.30;;;6.20;99.90;;;;;;4204734;28;20587;-73
2022/09/29 07:22:47;;;;;;;15.00;8.00;;;6.20;99.90;;;;;;4217848;28;20551;-74
2022/09/29 07:24:49;;;;;;;15.20;7.30;;;6.30;99.90;;;;;;4219228;28;20476;-73
2022/09/29 07:26:52;;;;;;;15.63;7.27;;;6.30;99.90;;;;;;4222040;28;21177;-74
2022/09/29 07:28:55;;;;;;;14.80;7.47;;;6.30;99.90;;;;;;4221776;28;20444;-74
2022/09/29 07:31:00;;;;;;;14.03;7.13;;;6.40;99.90;;;;;;4202964;28;20997;-74
2022/09/29 07:33:04;;;;;;;15.43;7.47;;;6.40;99.90;;;;;;4205676;28;20520;-75
2022/09/29 07:35:07;;;;;;;14.57;7.00;;;6.40;99.90;;;;;;4222621;28;20467;-75
2022/09/29 07:37:09;;;;;;;13.17;7.33;;;6.50;99.90;;;;;;4202935;28;20514;-74
2022/09/29 07:39:11;;;;;;;15.83;7.90;;;6.50;99.90;;;;;;4221613;28;20505;-75
2022/09/29 07:41:14;;;;;;;16.10;7.33;;;6.60;99.90;;;;;;4213454;28;20463;-76
2022/09/29 07:43:15;;;;;;;13.33;7.27;;;6.60;99.90;;;;;;4214210;28;20539;-75
2022/09/29 07:45:19;;;;;;;14.40;7.83;;;6.60;99.90;;;;;;4197635;28;21399;-74
2022/09/29 07:47:21;;;;;;;19.17;8.03;;;6.70;99.90;;;;;;4217079;28;20903;-74
2022/09/29 07:49:22;;;;;;;14.13;7.23;;;6.70;99.90;;;;;;4215330;28;20452;-73
2022/09/29 07:51:24;;;;;;;14.27;7.60;;;6.80;99.90;;;;;;4201293;28;20463;-73
2022/09/29 07:53:26;;;;;;;12.70;7.13;;;6.80;99.90;;;;;;4199945;28;20501;-75
2022/09/29 07:55:28;;;;;;;13.73;7.40;;;6.90;99.90;;;;;;4200156;28;21149;-72
2022/09/29 07:57:30;;;;;;;15.03;7.47;;;6.90;99.90;;;;;;4212639;28;20998;-75
2022/09/29 07:59:32;;;;;;;15.37;7.97;;;7.00;99.90;;;;;;4219829;28;20462;-73
2022/09/29 08:01:36;;;;;;;14.60;7.27;;;7.00;99.90;;;;;;4209271;28;20458;-74
2022/09/29 08:03:38;;;;;;;17.03;7.77;;;7.10;99.90;;;;;;4219856;28;20452;-75
2022/09/29 08:05:41;;;;;;;19.43;8.87;;;7.10;99.90;;;;;;4222768;28;20847;-74
2022/09/29 08:07:43;;;;;;;17.17;8.90;;;7.20;99.90;;;;;;4206922;28;21360;-74
2022/09/29 08:09:45;;;;;;;16.63;8.63;;;7.20;99.90;;;;;;4219755;28;20453;-74
2022/09/29 08:11:48;;;;;;;20.13;8.77;;;7.30;99.90;;;;;;4203991;28;21242;-74
2022/09/29 08:13:52;;;;;;;17.77;8.30;;;7.30;99.90;;;;;;4217317;28;20514;-73
2022/09/29 08:15:58;;;;;;;18.37;9.57;;;7.50;99.90;;;;;;4219973;28;20438;-75
2022/09/29 08:18:02;;;;;;;20.83;9.50;;;7.50;99.90;;;;;;4218442;28;20519;-73
2022/09/29 08:20:04;;;;;;;20.67;10.13;;;7.60;99.90;;;;;;4202116;28;21080;-73
2022/09/29 08:22:06;;;;;;;18.07;9.40;;;7.60;99.90;;;;;;4225370;28;20453;-76
2022/09/29 08:24:09;;;;;;;18.97;10.13;;;7.70;99.90;;;;;;4206857;28;21062;-73
2022/09/29 08:26:14;;;;;;;17.23;8.97;;;7.80;99.90;;;;;;4222012;28;20473;-74
2022/09/29 08:28:16;;;;;;;19.20;9.97;;;7.80;99.90;;;;;;4224647;28;21229;-74
2022/09/29 08:30:21;;;;;;;15.77;8.47;;;7.90;99.90;;;;;;4225866;28;20466;-73
2022/09/29 08:32:23;;;;;;;15.60;8.50;;;8.00;99.90;;;;;;4200709;28;20541;-73
2022/09/29 08:34:27;;;;;;;17.30;9.43;;;8.00;99.90;;;;;;4207790;28;20489;-74
2022/09/29 08:36:30;;;;;;;20.00;10.47;;;8.00;99.90;;;;;;4226696;28;20802;-72
2022/09/29 08:38:33;;;;;;;18.23;9.20;;;8.10;99.90;;;;;;4221597;28;20477;-76
2022/09/29 08:40:36;;;;;;;18.87;10.20;;;8.20;99.90;;;;;;4223674;28;20811;-74
2022/09/29 08:42:48;;;;;;;18.37;9.87;;;8.20;99.90;;;;;;4219965;28;20549;-74
2022/09/29 08:44:57;;;;;;;14.33;8.27;;;8.30;99.90;;;;;;4206915;28;20515;-73
2022/09/29 08:47:05;;;;;;;17.03;9.40;;;8.30;99.90;;;;;;4222940;28;20493;-73
2022/09/29 08:49:12;;;;;;;15.67;9.37;;;8.40;99.90;;;;;;4222709;28;20881;-74
2022/09/29 08:51:25;;;;;;;18.37;8.87;;;8.40;99.90;;;;;;4223429;28;20498;-74
2022/09/29 08:53:29;;;;;;;19.47;10.00;;;8.50;99.90;;;;;;4220927;28;20458;-74
2022/09/29 08:55:41;;;;;;;16.70;8.73;;;8.60;99.90;;;;;;4210507;28;20478;-72
2022/09/29 08:57:44;;;;;;;15.67;8.80;;;8.60;99.90;;;;;;4223374;28;20556;-74
2022/09/29 08:59:53;;;;;;;17.83;9.10;;;8.70;99.90;;;;;;4211759;28;20467;-75
2022/09/29 09:02:20;;;;;;;14.07;8.50;;;8.80;99.90;;;;;;4223238;28;20541;-74
2022/09/29 09:04:53;;;;;;;17.63;8.73;;;8.90;99.90;;;;;;4222052;28;20434;-73
2022/09/29 09:07:07;;;;;;;15.20;8.67;;;8.90;99.90;;;;;;4218012;28;20474;-73
2022/09/29 09:09:29;;;;;;;18.83;10.37;;;9.00;99.90;;;;;;4220043;28;20952;-73
2022/09/29 09:11:45;;;;;;;19.57;9.63;;;9.10;99.90;;;;;;4219293;28;20443;-73
2022/09/29 09:14:03;;;;;;;18.17;9.27;;;9.10;99.90;;;;;;4221436;28;20461;-73
2022/09/29 09:16:17;;;;;;;15.40;9.33;;;9.20;99.90;;;;;;4223875;28;20817;-73
2022/09/29 09:18:49;;;;;;;17.13;8.93;;;9.30;99.90;;;;;;4201481;28;20559;-73
2022/09/29 09:20:56;;;;;;;15.17;8.93;;;9.30;99.90;;;;;;4217994;28;20435;-74
2022/09/29 09:23:01;;;;;;;17.40;9.17;;;9.40;99.90;;;;;;4201987;28;20489;-74
2022/09/29 09:25:13;;;;;;;13.60;8.50;;;9.50;99.90;;;;;;4203007;28;20222;-74
2022/09/29 09:27:21;;;;;;;16.03;9.10;;;9.50;99.90;;;;;;4222716;28;20309;-74
2022/09/29 09:29:30;;;;;;;15.50;8.03;;;9.60;99.90;;;;;;4210213;28;20209;-74
2022/09/29 09:31:39;;;;;;;17.17;9.47;;;9.70;99.90;;;;;;4206040;28;20793;-75
2022/09/29 09:33:46;;;;;;;16.20;9.20;;;9.70;99.90;;;;;;4204410;28;20621;-74
2022/09/29 09:35:53;;;;;;;14.97;8.33;;;9.80;99.90;;;;;;4223068;28;20194;-73
2022/09/29 09:37:57;;;;;;;16.00;8.57;;;9.90;99.90;;;;;;4219328;28;20736;-75
2022/09/29 09:40:07;;;;;;;13.40;8.50;;;9.90;99.90;;;;;;4204493;28;20293;-74
2022/09/29 09:42:15;;;;;;;13.87;8.53;;;10.00;99.90;;;;;;4221017;28;20619;-73
2022/09/29 09:44:24;;;;;;;15.43;8.80;;;10.00;99.90;;;;;;4219752;28;20216;-75
2022/09/29 09:46:32;;;;;;;12.17;7.90;;;10.10;99.90;;;;;;4222953;28;20271;-74
2022/09/29 09:48:42;;;;;;;16.30;8.37;;;10.10;99.90;;;;;;4201557;28;20671;-76
2022/09/29 09:50:46;;;;;;;13.03;8.10;;;10.30;99.90;;;;;;4202395;28;20250;-74
2022/09/29 09:52:51;;;;;;;13.30;8.40;;;10.40;99.90;;;;;;4223474;28;20674;-77
2022/09/29 09:54:56;;;;;;;11.70;7.43;;;10.50;99.90;;;;;;4221568;28;20204;-75
2022/09/29 09:57:32;;;;;;;10.80;6.57;;;10.60;99.90;;;;;;4220869;28;20221;-73
2022/09/29 09:59:47;;;;;;;11.97;6.27;;;10.70;99.90;;;;;;4226003;28;20222;-74
2022/09/29 10:01:49;;;;;;;8.80;4.87;;;10.80;99.90;;;;;;4222861;28;20238;-75
2022/09/29 10:03:56;;;;;;;7.77;5.07;;;10.90;99.90;;;;;;4227187;28;20584;-74
2022/09/29 10:05:59;;;;;;;7.90;5.30;;;11.00;99.90;;;;;;4225513;28;20238;-75
2022/09/29 10:08:02;;;;;;;6.90;5.10;;;11.10;99.90;;;;;;4205127;28;20238;-76
2022/09/29 10:10:13;;;;;;;8.90;5.40;;;11.20;99.90;;;;;;4226448;28;20227;-75
2022/09/29 10:12:17;;;;;;;7.63;5.13;;;11.20;99.90;;;;;;4223447;28;20621;-75
2022/09/29 10:14:24;;;;;;;7.70;5.17;;;11.30;99.90;;;;;;4208421;28;20215;-76
2022/09/29 10:16:33;;;;;;;7.63;5.43;;;11.30;99.90;;;;;;4220340;28;20297;-78
2022/09/29 10:18:39;;;;;;;6.83;4.57;;;11.40;99.90;;;;;;4213621;28;20262;-75
2022/09/29 10:20:41;;;;;;;7.67;4.67;;;11.40;99.90;;;;;;4226234;28;20217;-74
2022/09/29 10:22:44;;;;;;;6.67;4.77;;;11.50;99.90;;;;;;4223125;28;20302;-75
2022/09/29 10:24:46;;;;;;;8.23;4.43;;;11.60;99.90;;;;;;4210636;28;20207;-75
2022/09/29 10:26:51;;;;;;;6.07;4.20;;;11.60;99.90;;;;;;4202876;28;20867;-75
2022/09/29 10:28:55;;;;;;;6.93;3.93;;;11.60;99.90;;;;;;4224077;28;20207;-75
2022/09/29 10:30:59;;;;;;;6.53;4.00;;;11.60;99.90;;;;;;4202823;28;20657;-74
2022/09/29 10:33:05;;;;;;;6.33;3.93;;;11.60;99.90;;;;;;4203477;28;20939;-75
2022/09/29 10:35:16;;;;;;;6.50;3.63;;;11.60;99.90;;;;;;4219251;28;20571;-76
2022/09/29 10:37:23;;;;;;;6.33;3.97;;;11.60;99.90;;;;;;4218725;28;20233;-75
2022/09/29 10:39:42;;;;;;;6.50;4.27;;;11.60;99.90;;;;;;4194566;28;20295;-76
2022/09/29 10:41:52;;;;;;;6.00;3.90;;;11.60;99.90;;;;;;4215095;28;20211;-76
2022/09/29 10:43:54;;;;;;;5.67;4.03;;;11.70;99.90;;;;;;4204308;28;20212;-75
2022/09/29 10:46:01;;;;;;;6.90;4.67;;;11.70;99.90;;;;;;4222954;28;20300;-75
2022/09/29 10:48:13;;;;;;;6.07;3.80;;;11.80;99.90;;;;;;4223812;28;20220;-75
2022/09/29 10:50:19;;;;;;;6.00;4.17;;;11.90;99.90;;;;;;4197309;28;20236;-75
2022/09/29 10:52:25;;;;;;;5.80;4.47;;;12.00;99.90;;;;;;4199170;28;20294;-75
2022/09/29 10:54:29;;;;;;;6.33;4.30;;;12.00;99.90;;;;;;4202690;28;20201;-75
2022/09/29 10:56:31;;;;;;;6.80;4.50;;;12.10;99.90;;;;;;4221571;28;20217;-76